In Rescue
 
Open Full Screen Window  High Contrast Mode
Wind Gusting 19 knots
14
April 20, 2024 10:11 AM EDT
Weather Information
Wind Direction
  270 °
Wind Speed
  14 kt (16 mph)
Wind Gust
  19 kt (22 mph)
Altimeter
30.02 in
Visibility
10 SM
Temperature
05° C
41° F
Dewpoint
-03° C
27° F
Humidity
56%
Sky Condition
Clear
VFR

METAR KSJX 201411Z AUTO 27014G19KT 10SM CLR 05/M03 A3002 RMK AO2 T00451032

FAA Disclaimer: The data displayed is for advisory purposes only and is not to be used for flight planning or operations.